createdAt,value
2017-10-17T00:00:50.219Z,1008.6
2017-10-17T00:01:51.610Z,1008.6
2017-10-17T00:02:53.002Z,1008.6
2017-10-17T00:03:54.395Z,1008.6
2017-10-17T00:04:55.788Z,1008.6
2017-10-17T00:05:57.176Z,1008.7
2017-10-17T00:06:58.567Z,1008.7
2017-10-17T00:07:59.959Z,1008.7
2017-10-17T00:09:01.350Z,1008.7
2017-10-17T00:10:02.744Z,1008.7
2017-10-17T00:11:04.139Z,1008.6
2017-10-17T00:12:05.531Z,1008.7
2017-10-17T00:13:06.920Z,1008.6
2017-10-17T00:14:08.312Z,1008.6
2017-10-17T00:15:09.728Z,1008.6
2017-10-17T00:16:11.094Z,1008.7
2017-10-17T00:17:12.492Z,1008.6
2017-10-17T00:18:13.882Z,1008.6
2017-10-17T00:19:15.273Z,1008.6
2017-10-17T00:20:16.664Z,1008.6
2017-10-17T00:21:18.053Z,1008.6
2017-10-17T00:22:19.443Z,1008.6
2017-10-17T00:23:20.836Z,1008.6
2017-10-17T00:24:22.233Z,1008.6
2017-10-17T00:25:23.623Z,1008.6
2017-10-17T00:26:25.014Z,1008.6
2017-10-17T00:27:26.408Z,1008.6
2017-10-17T00:28:27.800Z,1008.6
2017-10-17T00:29:29.192Z,1008.6
2017-10-17T00:30:30.585Z,1008.6
2017-10-17T00:31:31.978Z,1008.6
2017-10-17T00:32:34.281Z,1008.6
2017-10-17T00:33:35.726Z,1008.6
2017-10-17T00:34:37.113Z,1008.6
2017-10-17T00:35:38.515Z,1008.6
2017-10-17T00:36:39.896Z,1008.6
2017-10-17T00:37:41.292Z,1008.6
2017-10-17T00:38:42.682Z,1008.6
2017-10-17T00:39:44.075Z,1008.6
2017-10-17T00:40:45.467Z,1008.6
2017-10-17T00:41:46.854Z,1008.6
2017-10-17T00:42:48.247Z,1008.6
2017-10-17T00:43:49.636Z,1008.6
2017-10-17T00:44:51.027Z,1008.6
2017-10-17T00:45:52.419Z,1008.6
2017-10-17T00:46:53.815Z,1008.6
2017-10-17T00:47:55.215Z,1008.6
2017-10-17T00:48:56.598Z,1008.6
2017-10-17T00:49:57.990Z,1008.6
2017-10-17T00:50:59.380Z,1008.6
2017-10-17T00:52:00.775Z,1008.6
2017-10-17T00:53:02.170Z,1008.6
2017-10-17T00:54:03.566Z,1008.6
2017-10-17T00:55:04.958Z,1008.6
2017-10-17T00:56:06.347Z,1008.6
2017-10-17T00:57:07.738Z,1008.6
2017-10-17T00:58:09.130Z,1008.6
2017-10-17T00:59:10.520Z,1008.6
2017-10-17T01:00:11.914Z,1008.7
2017-10-17T01:01:13.306Z,1008.6
2017-10-17T01:02:14.699Z,1008.7
2017-10-17T01:03:16.091Z,1008.7
2017-10-17T01:04:17.477Z,1008.6
2017-10-17T01:05:18.868Z,1008.7
2017-10-17T01:06:20.266Z,1008.6
2017-10-17T01:07:21.654Z,1008.6
2017-10-17T01:08:23.046Z,1008.7
2017-10-17T01:09:24.442Z,1008.7
2017-10-17T01:10:25.834Z,1008.7
2017-10-17T01:11:27.221Z,1008.6
2017-10-17T01:12:28.611Z,1008.6
2017-10-17T01:13:30.004Z,1008.6
2017-10-17T01:14:31.399Z,1008.6
2017-10-17T01:15:32.792Z,1008.6
2017-10-17T01:16:34.185Z,1008.6
2017-10-17T01:17:35.571Z,1008.6
2017-10-17T01:18:36.962Z,1008.6
2017-10-17T01:19:38.354Z,1008.6
2017-10-17T01:20:39.747Z,1008.6
2017-10-17T01:21:41.140Z,1008.6
2017-10-17T01:22:42.533Z,1008.6
2017-10-17T01:23:43.927Z,1008.7
2017-10-17T01:24:45.315Z,1008.6
2017-10-17T01:25:46.709Z,1008.6
2017-10-17T01:26:48.101Z,1008.6
2017-10-17T01:27:49.492Z,1008.6
2017-10-17T01:28:50.883Z,1008.7
2017-10-17T01:29:52.275Z,1008.7
2017-10-17T01:30:53.673Z,1008.7
2017-10-17T01:31:55.064Z,1008.7
2017-10-17T01:32:56.455Z,1008.7
2017-10-17T01:33:57.846Z,1008.7
2017-10-17T01:34:59.236Z,1008.8
2017-10-17T01:36:00.635Z,1008.7
2017-10-17T01:37:02.029Z,1008.7
2017-10-17T01:38:03.424Z,1008.7
2017-10-17T01:39:04.808Z,1008.7
2017-10-17T01:40:06.200Z,1008.8
2017-10-17T01:41:07.593Z,1008.8
2017-10-17T01:42:08.984Z,1008.8
2017-10-17T01:43:10.376Z,1008.8
2017-10-17T01:44:11.770Z,1008.8
2017-10-17T01:45:13.165Z,1008.8
2017-10-17T01:46:14.555Z,1008.8
2017-10-17T01:47:15.946Z,1008.8
2017-10-17T01:48:17.338Z,1008.9
2017-10-17T01:49:18.730Z,1008.8
2017-10-17T01:50:20.121Z,1008.9
2017-10-17T01:51:21.516Z,1008.8
2017-10-17T01:52:22.910Z,1008.8
2017-10-17T01:53:24.296Z,1008.9
2017-10-17T01:54:25.688Z,1008.8
2017-10-17T01:55:27.077Z,1008.8
2017-10-17T01:56:28.466Z,1008.8
2017-10-17T01:57:29.859Z,1008.8
2017-10-17T01:58:31.254Z,1008.8
2017-10-17T01:59:32.648Z,1008.8
2017-10-17T02:00:34.036Z,1008.8
2017-10-17T02:01:35.429Z,1008.7
2017-10-17T02:02:36.817Z,1008.8
2017-10-17T02:03:38.208Z,1008.8
2017-10-17T02:04:39.603Z,1008.8
2017-10-17T02:05:40.994Z,1008.8
2017-10-17T02:06:42.384Z,1008.8
2017-10-17T02:07:43.775Z,1008.8
2017-10-17T02:08:45.207Z,1008.8
2017-10-17T02:09:46.601Z,1008.8
2017-10-17T02:10:47.989Z,1008.8
2017-10-17T02:11:49.383Z,1008.8
2017-10-17T02:12:50.782Z,1008.8
2017-10-17T02:13:52.174Z,1008.8
2017-10-17T02:14:53.563Z,1008.8
2017-10-17T02:15:54.955Z,1008.8
2017-10-17T02:16:56.351Z,1008.9
2017-10-17T02:17:58.332Z,1008.8
2017-10-17T02:18:59.729Z,1008.8
2017-10-17T02:20:01.120Z,1008.9
2017-10-17T02:21:02.520Z,1008.8
2017-10-17T02:22:03.913Z,1008.8
2017-10-17T02:23:05.307Z,1008.8
2017-10-17T02:24:06.722Z,1008.9
2017-10-17T02:25:08.095Z,1008.9
2017-10-17T02:26:09.484Z,1008.9
2017-10-17T02:27:10.876Z,1008.9
2017-10-17T02:28:12.271Z,1008.9
2017-10-17T02:29:13.660Z,1008.9
2017-10-17T02:30:15.051Z,1008.9
2017-10-17T02:31:16.442Z,1008.9
2017-10-17T02:32:17.834Z,1008.9
2017-10-17T02:33:19.228Z,1008.9
2017-10-17T02:34:20.620Z,1008.9
2017-10-17T02:35:22.013Z,1009.0
2017-10-17T02:36:23.405Z,1008.9
2017-10-17T02:37:24.797Z,1008.9
2017-10-17T02:38:26.185Z,1008.9
2017-10-17T02:39:27.580Z,1008.9
2017-10-17T02:40:28.968Z,1008.9
2017-10-17T02:41:30.362Z,1009.0
2017-10-17T02:42:31.760Z,1009.0
2017-10-17T02:43:33.150Z,1009.0
2017-10-17T02:44:34.542Z,1009.0
2017-10-17T02:45:35.932Z,1009.0
2017-10-17T02:46:37.344Z,1009.0
2017-10-17T02:47:38.736Z,1009.0
2017-10-17T02:48:40.131Z,1009.0
2017-10-17T02:49:41.521Z,1009.0
2017-10-17T02:50:42.910Z,1009.0
2017-10-17T02:51:44.300Z,1009.0
2017-10-17T02:52:45.691Z,1009.0
2017-10-17T02:53:47.088Z,1009.0
2017-10-17T02:54:48.476Z,1009.0
2017-10-17T02:55:49.872Z,1009.0
2017-10-17T02:56:51.264Z,1008.9
2017-10-17T02:57:52.658Z,1008.9
2017-10-17T02:58:54.045Z,1009.0
2017-10-17T02:59:55.436Z,1009.0
2017-10-17T03:00:56.830Z,1009.0
2017-10-17T03:01:58.228Z,1009.0
2017-10-17T03:02:59.613Z,1009.1
2017-10-17T03:04:01.005Z,1009.0
2017-10-17T03:05:02.393Z,1009.0
2017-10-17T03:06:03.786Z,1009.0
2017-10-17T03:07:05.177Z,1009.1
2017-10-17T03:08:06.566Z,1009.0
2017-10-17T03:09:07.958Z,1009.0
2017-10-17T03:10:09.347Z,1009.0
2017-10-17T03:11:10.743Z,1009.0
2017-10-17T03:12:12.135Z,1009.0
2017-10-17T03:13:13.523Z,1009.0
2017-10-17T03:14:14.915Z,1009.0
2017-10-17T03:15:16.303Z,1009.0
2017-10-17T03:16:17.697Z,1009.0
2017-10-17T03:17:19.093Z,1009.0
2017-10-17T03:18:20.487Z,1008.9
2017-10-17T03:19:21.881Z,1009.0
2017-10-17T03:20:23.268Z,1009.0
2017-10-17T03:21:24.661Z,1009.0
2017-10-17T03:22:26.053Z,1009.0
2017-10-17T03:23:27.444Z,1009.0
2017-10-17T03:24:28.840Z,1009.0
2017-10-17T03:25:30.231Z,1009.0
2017-10-17T03:26:31.622Z,1009.1
2017-10-17T03:27:33.012Z,1009.0
2017-10-17T03:28:34.401Z,1009.1
2017-10-17T03:29:35.795Z,1009.1
2017-10-17T03:30:37.186Z,1009.1
2017-10-17T03:31:38.574Z,1009.1
2017-10-17T03:32:39.971Z,1009.1
2017-10-17T03:33:41.359Z,1009.1
2017-10-17T03:34:42.750Z,1009.1
2017-10-17T03:35:44.138Z,1009.1
2017-10-17T03:36:45.530Z,1009.1
2017-10-17T03:37:46.921Z,1009.1
2017-10-17T03:38:48.313Z,1009.1
2017-10-17T03:39:49.706Z,1009.1
2017-10-17T03:40:51.098Z,1009.1
2017-10-17T03:41:52.488Z,1009.1
2017-10-17T03:42:53.886Z,1009.1
2017-10-17T03:43:55.324Z,1009.1
2017-10-17T03:44:56.715Z,1009.1
2017-10-17T03:45:58.111Z,1009.1
2017-10-17T03:46:59.501Z,1009.1
2017-10-17T03:48:00.894Z,1009.0
2017-10-17T03:49:02.282Z,1009.1
2017-10-17T03:50:03.675Z,1009.1
2017-10-17T03:51:05.067Z,1009.2
2017-10-17T03:52:06.456Z,1009.2
2017-10-17T03:53:07.851Z,1009.1
2017-10-17T03:54:09.245Z,1009.1
2017-10-17T03:55:10.634Z,1009.2
2017-10-17T03:56:12.024Z,1009.2
2017-10-17T03:57:13.419Z,1009.2
2017-10-17T03:58:14.807Z,1009.2
2017-10-17T03:59:16.197Z,1009.2
2017-10-17T04:00:17.586Z,1009.2
2017-10-17T04:01:18.980Z,1009.2
2017-10-17T04:02:20.377Z,1009.1
2017-10-17T04:03:21.759Z,1009.2
2017-10-17T04:04:23.153Z,1009.2
2017-10-17T04:05:24.544Z,1009.2
2017-10-17T04:06:25.935Z,1009.2
2017-10-17T04:07:27.332Z,1009.2
2017-10-17T04:08:28.722Z,1009.2
2017-10-17T04:09:30.114Z,1009.2
2017-10-17T04:10:31.505Z,1009.3
2017-10-17T04:11:32.895Z,1009.2
2017-10-17T04:12:34.287Z,1009.3
2017-10-17T04:13:35.676Z,1009.2
2017-10-17T04:14:37.067Z,1009.2
2017-10-17T04:15:38.461Z,1009.2
2017-10-17T04:16:39.873Z,1009.3
2017-10-17T04:17:41.238Z,1009.2
2017-10-17T04:18:42.628Z,1009.3
2017-10-17T04:19:44.022Z,1009.2
2017-10-17T04:20:45.412Z,1009.2
2017-10-17T04:21:46.803Z,1009.3
2017-10-17T04:22:48.197Z,1009.3
2017-10-17T04:23:49.584Z,1009.3
2017-10-17T04:24:50.978Z,1009.3
2017-10-17T04:25:52.375Z,1009.3
2017-10-17T04:26:53.768Z,1009.3
2017-10-17T04:27:55.167Z,1009.3
2017-10-17T04:28:56.566Z,1009.3
2017-10-17T04:29:57.956Z,1009.3
2017-10-17T04:30:59.348Z,1009.3
2017-10-17T04:32:00.737Z,1009.3
2017-10-17T04:33:02.136Z,1009.3
2017-10-17T04:34:03.525Z,1009.3
2017-10-17T04:35:04.916Z,1009.4
2017-10-17T04:36:06.312Z,1009.4
2017-10-17T04:37:07.708Z,1009.4
2017-10-17T04:38:09.134Z,1009.4
2017-10-17T04:39:10.497Z,1009.4
2017-10-17T04:40:11.893Z,1009.4
2017-10-17T04:41:13.285Z,1009.4
2017-10-17T04:42:14.675Z,1009.3
2017-10-17T04:43:16.071Z,1009.3
2017-10-17T04:44:17.470Z,1009.4
2017-10-17T04:45:18.861Z,1009.3
2017-10-17T04:46:20.254Z,1009.4
2017-10-17T04:47:21.649Z,1009.4
2017-10-17T04:48:23.038Z,1009.3
2017-10-17T04:49:24.431Z,1009.4
2017-10-17T04:50:25.821Z,1009.4
2017-10-17T04:51:27.213Z,1009.4
2017-10-17T04:52:28.604Z,1009.4
2017-10-17T04:53:29.995Z,1009.4
2017-10-17T04:54:31.386Z,1009.4
2017-10-17T04:55:32.781Z,1009.4
2017-10-17T04:56:34.205Z,1009.4
2017-10-17T04:57:35.606Z,1009.4
2017-10-17T04:58:36.999Z,1009.4
2017-10-17T04:59:38.384Z,1009.5
2017-10-17T05:00:39.779Z,1009.5
2017-10-17T05:01:41.166Z,1009.5
2017-10-17T05:02:42.561Z,1009.5
2017-10-17T05:03:43.952Z,1009.5
2017-10-17T05:04:45.346Z,1009.5
2017-10-17T05:05:46.742Z,1009.5
2017-10-17T05:06:48.128Z,1009.5
2017-10-17T05:07:49.520Z,1009.5
2017-10-17T05:08:50.913Z,1009.5
2017-10-17T05:09:52.302Z,1009.5
2017-10-17T05:10:53.699Z,1009.5
2017-10-17T05:11:55.092Z,1009.5
2017-10-17T05:12:56.486Z,1009.5
2017-10-17T05:13:57.874Z,1009.5
2017-10-17T05:14:59.264Z,1009.5
2017-10-17T05:16:00.771Z,1009.4
2017-10-17T05:17:02.146Z,1009.5
2017-10-17T05:18:03.540Z,1009.5
2017-10-17T05:19:04.995Z,1009.5
2017-10-17T05:20:06.386Z,1009.5
2017-10-17T05:21:07.776Z,1009.4
2017-10-17T05:22:09.168Z,1009.4
2017-10-17T05:23:10.558Z,1009.4
2017-10-17T05:24:11.953Z,1009.4
2017-10-17T05:25:13.343Z,1009.4
2017-10-17T05:26:14.975Z,1009.5
2017-10-17T05:27:16.377Z,1009.5
2017-10-17T05:28:17.764Z,1009.5
2017-10-17T05:29:19.156Z,1009.5
2017-10-17T05:30:20.548Z,1009.5
2017-10-17T05:31:21.946Z,1009.5
2017-10-17T05:32:23.652Z,1009.5
2017-10-17T05:33:25.040Z,1009.4
2017-10-17T05:34:26.433Z,1009.5
2017-10-17T05:35:27.824Z,1009.4
2017-10-17T05:36:29.216Z,1009.4
2017-10-17T05:37:30.607Z,1009.5
2017-10-17T05:38:32.000Z,1009.5
2017-10-17T05:39:33.396Z,1009.5
2017-10-17T05:40:34.789Z,1009.5
2017-10-17T05:41:36.185Z,1009.5
2017-10-17T05:42:37.572Z,1009.5
2017-10-17T05:43:38.962Z,1009.5
2017-10-17T05:44:40.411Z,1009.5
2017-10-17T05:45:41.801Z,1009.5
2017-10-17T05:46:43.195Z,1009.4
2017-10-17T05:47:44.603Z,1009.5
2017-10-17T05:48:46.000Z,1009.5
2017-10-17T05:49:48.055Z,1009.5
2017-10-17T05:50:49.446Z,1009.5
2017-10-17T05:51:50.838Z,1009.6
2017-10-17T05:52:52.230Z,1009.5
2017-10-17T05:53:53.623Z,1009.5
2017-10-17T05:54:55.018Z,1009.5
2017-10-17T05:55:57.119Z,1009.5
2017-10-17T05:56:58.512Z,1009.6
2017-10-17T05:57:59.907Z,1009.6
2017-10-17T05:59:01.297Z,1009.6
2017-10-17T06:00:02.688Z,1009.6
2017-10-17T06:01:04.083Z,1009.7
2017-10-17T06:02:05.478Z,1009.6
2017-10-17T06:03:06.882Z,1009.6
2017-10-17T06:04:08.273Z,1009.7
2017-10-17T06:05:09.674Z,1009.7
2017-10-17T06:06:11.062Z,1009.7
2017-10-17T06:07:12.454Z,1009.7
2017-10-17T06:08:13.852Z,1009.7
2017-10-17T06:09:15.246Z,1009.7
2017-10-17T06:10:16.641Z,1009.7
2017-10-17T06:11:18.034Z,1009.7
2017-10-17T06:12:19.425Z,1009.7
2017-10-17T06:13:20.836Z,1009.8
2017-10-17T06:14:22.210Z,1009.8
2017-10-17T06:15:23.605Z,1009.7
2017-10-17T06:16:24.999Z,1009.7
2017-10-17T06:17:26.393Z,1009.7
2017-10-17T06:18:27.788Z,1009.8
2017-10-17T06:19:29.181Z,1009.8
2017-10-17T06:20:30.570Z,1009.8
2017-10-17T06:21:31.961Z,1009.8
2017-10-17T06:22:33.353Z,1009.8
2017-10-17T06:23:34.766Z,1009.8
2017-10-17T06:24:36.162Z,1009.8
2017-10-17T06:25:37.550Z,1009.8
2017-10-17T06:26:38.945Z,1009.8
2017-10-17T06:27:40.338Z,1009.9
2017-10-17T06:28:41.732Z,1009.8
2017-10-17T06:29:43.127Z,1009.8
2017-10-17T06:30:44.522Z,1009.9
2017-10-17T06:31:45.914Z,1009.9
2017-10-17T06:32:47.306Z,1009.8
2017-10-17T06:33:48.698Z,1009.9
2017-10-17T06:34:50.090Z,1009.9
2017-10-17T06:35:51.488Z,1009.9
2017-10-17T06:36:52.877Z,1009.9
2017-10-17T06:37:54.270Z,1009.9
2017-10-17T06:38:55.665Z,1009.8
2017-10-17T06:39:57.057Z,1009.8
2017-10-17T06:40:58.447Z,1009.8
2017-10-17T06:41:59.841Z,1009.8
2017-10-17T06:43:01.230Z,1009.8
2017-10-17T06:44:02.628Z,1009.8
2017-10-17T06:45:04.023Z,1009.8
2017-10-17T06:46:05.416Z,1009.8
2017-10-17T06:47:06.807Z,1009.8
2017-10-17T06:48:08.201Z,1009.8
2017-10-17T06:49:09.593Z,1009.8
2017-10-17T06:50:10.986Z,1009.9
2017-10-17T06:51:12.377Z,1009.9
2017-10-17T06:52:13.773Z,1009.9
2017-10-17T06:53:15.169Z,1009.8
2017-10-17T06:54:16.562Z,1009.9
2017-10-17T06:55:17.955Z,1009.9
2017-10-17T06:56:19.349Z,1009.9
2017-10-17T06:57:20.740Z,1009.9
2017-10-17T06:58:22.135Z,1009.9
2017-10-17T06:59:23.532Z,1009.9
2017-10-17T07:00:24.928Z,1009.9
2017-10-17T07:01:26.320Z,1009.9
2017-10-17T07:02:27.714Z,1009.9
2017-10-17T07:03:29.105Z,1009.9
2017-10-17T07:04:30.526Z,1009.9
2017-10-17T07:05:31.896Z,1010.0
2017-10-17T07:06:33.294Z,1009.9
2017-10-17T07:07:34.687Z,1010.0
2017-10-17T07:08:36.081Z,1009.9
2017-10-17T07:09:37.475Z,1009.9
2017-10-17T07:10:38.871Z,1009.9
2017-10-17T07:11:40.279Z,1009.9
2017-10-17T07:12:41.672Z,1009.9
2017-10-17T07:13:43.078Z,1009.9
2017-10-17T07:14:44.466Z,1009.9
2017-10-17T07:15:45.858Z,1009.9
2017-10-17T07:16:47.253Z,1009.9
2017-10-17T07:17:48.647Z,1009.9
2017-10-17T07:18:50.043Z,1009.9
2017-10-17T07:19:51.438Z,1009.9
2017-10-17T07:20:52.832Z,1010.0
2017-10-17T07:21:54.227Z,1010.0
2017-10-17T07:22:55.621Z,1009.9
2017-10-17T07:23:57.020Z,1010.0
2017-10-17T07:24:58.411Z,1009.9
2017-10-17T07:25:59.808Z,1010.0
2017-10-17T07:27:01.203Z,1009.9
2017-10-17T07:28:02.600Z,1010.0
2017-10-17T07:29:03.994Z,1009.9
2017-10-17T07:30:05.391Z,1009.9
2017-10-17T07:31:06.783Z,1009.9
2017-10-17T07:32:08.177Z,1009.9
2017-10-17T07:33:09.572Z,1009.9
2017-10-17T07:34:10.965Z,1009.9
2017-10-17T07:35:12.367Z,1009.9
2017-10-17T07:36:13.768Z,1009.9
2017-10-17T07:37:15.154Z,1009.9
2017-10-17T07:38:16.570Z,1009.9
2017-10-17T07:39:17.963Z,1009.9
2017-10-17T07:40:19.374Z,1009.9
2017-10-17T07:41:20.753Z,1009.9
2017-10-17T07:42:22.149Z,1009.9
2017-10-17T07:43:23.545Z,1009.9
2017-10-17T07:44:24.940Z,1009.9
2017-10-17T07:45:26.333Z,1009.9
2017-10-17T07:46:27.725Z,1009.9
2017-10-17T07:47:29.122Z,1009.9
2017-10-17T07:48:30.519Z,1009.9
2017-10-17T07:49:31.915Z,1009.9
2017-10-17T07:50:33.311Z,1009.9
2017-10-17T07:51:34.707Z,1009.9
2017-10-17T07:52:36.102Z,1009.9
2017-10-17T07:53:37.499Z,1009.9
2017-10-17T07:54:38.893Z,1009.9
2017-10-17T07:55:40.291Z,1009.9
2017-10-17T07:56:41.689Z,1009.9
2017-10-17T07:57:43.086Z,1009.9
2017-10-17T07:58:44.479Z,1009.9
2017-10-17T07:59:45.876Z,1009.9
2017-10-17T08:00:47.269Z,1009.9
2017-10-17T08:01:48.666Z,1009.9
2017-10-17T08:02:50.061Z,1009.9
2017-10-17T08:03:51.461Z,1009.9
2017-10-17T08:04:52.856Z,1009.9
2017-10-17T08:05:54.252Z,1009.9
2017-10-17T08:06:55.649Z,1009.9
2017-10-17T08:07:57.042Z,1009.8
2017-10-17T08:08:58.439Z,1009.8
2017-10-17T08:09:59.840Z,1009.8
2017-10-17T08:11:01.231Z,1009.9
2017-10-17T08:12:02.630Z,1009.9
2017-10-17T08:13:04.025Z,1009.9
2017-10-17T08:14:05.420Z,1009.9
2017-10-17T08:15:06.813Z,1009.8
2017-10-17T08:16:08.210Z,1009.8
2017-10-17T08:17:09.603Z,1009.8
2017-10-17T08:18:11.004Z,1009.8
2017-10-17T08:19:12.402Z,1009.8
2017-10-17T08:20:13.795Z,1009.8
2017-10-17T08:21:15.213Z,1009.8
2017-10-17T08:22:16.609Z,1009.8
2017-10-17T08:23:18.005Z,1009.8
2017-10-17T08:24:19.403Z,1009.8
2017-10-17T08:25:20.799Z,1009.8
2017-10-17T08:26:22.197Z,1009.8
2017-10-17T08:27:23.591Z,1009.8
2017-10-17T08:28:24.986Z,1009.8
2017-10-17T08:29:26.381Z,1009.8
2017-10-17T08:30:27.775Z,1009.8
2017-10-17T08:31:29.172Z,1009.8
2017-10-17T08:32:30.573Z,1009.9
2017-10-17T08:33:31.967Z,1009.9
2017-10-17T08:34:33.370Z,1009.8
2017-10-17T08:35:34.758Z,1009.8
2017-10-17T08:36:36.154Z,1009.8
2017-10-17T08:37:37.551Z,1009.8
2017-10-17T08:38:38.948Z,1009.8
2017-10-17T08:39:40.347Z,1009.8
2017-10-17T08:40:41.744Z,1009.8
2017-10-17T08:41:43.138Z,1009.8
2017-10-17T08:42:44.533Z,1009.8
2017-10-17T08:43:45.926Z,1009.8
2017-10-17T08:44:47.324Z,1009.8
2017-10-17T08:45:48.721Z,1009.8
2017-10-17T08:46:50.119Z,1009.8
2017-10-17T08:47:51.514Z,1009.7
2017-10-17T08:48:52.913Z,1009.8
2017-10-17T08:49:54.310Z,1009.7
2017-10-17T08:50:55.706Z,1009.7
2017-10-17T08:51:57.106Z,1009.7
2017-10-17T08:52:58.505Z,1009.7
2017-10-17T08:53:59.906Z,1009.6
2017-10-17T08:55:01.306Z,1009.7
2017-10-17T08:56:02.702Z,1009.6
2017-10-17T08:57:04.104Z,1009.6
2017-10-17T08:58:05.499Z,1009.6
2017-10-17T08:59:06.897Z,1009.7
2017-10-17T09:00:08.293Z,1009.7
2017-10-17T09:01:09.694Z,1009.6
2017-10-17T09:02:11.089Z,1009.6
2017-10-17T09:03:12.484Z,1009.6
2017-10-17T09:04:13.883Z,1009.6
2017-10-17T09:05:15.282Z,1009.7
2017-10-17T09:06:16.677Z,1009.7
2017-10-17T09:07:18.075Z,1009.7
2017-10-17T09:08:19.474Z,1009.7
2017-10-17T09:09:20.870Z,1009.7
2017-10-17T09:10:22.265Z,1009.6
2017-10-17T09:11:23.675Z,1009.6
2017-10-17T09:12:25.063Z,1009.6
2017-10-17T09:13:26.456Z,1009.6
2017-10-17T09:14:27.857Z,1009.6
2017-10-17T09:15:29.257Z,1009.6
2017-10-17T09:16:30.653Z,1009.6
2017-10-17T09:17:32.053Z,1009.7
2017-10-17T09:18:33.452Z,1009.7
2017-10-17T09:19:34.847Z,1009.7
2017-10-17T09:20:36.244Z,1009.7
2017-10-17T09:21:37.670Z,1009.7
2017-10-17T09:22:39.070Z,1009.7
2017-10-17T09:23:40.468Z,1009.6
2017-10-17T09:24:41.865Z,1009.6
2017-10-17T09:25:43.264Z,1009.7
2017-10-17T09:26:44.660Z,1009.6
2017-10-17T09:27:46.059Z,1009.6
2017-10-17T09:28:47.459Z,1009.6
2017-10-17T09:29:48.859Z,1009.6
2017-10-17T09:30:50.261Z,1009.6
2017-10-17T09:31:51.655Z,1009.6
2017-10-17T09:32:53.051Z,1009.6
2017-10-17T09:33:54.450Z,1009.6
2017-10-17T09:34:55.849Z,1009.5
2017-10-17T09:35:57.246Z,1009.6
2017-10-17T09:36:58.642Z,1009.6
2017-10-17T09:38:00.040Z,1009.6
2017-10-17T09:39:01.441Z,1009.6
2017-10-17T09:40:02.842Z,1009.6
2017-10-17T09:41:04.238Z,1009.6
2017-10-17T09:42:05.640Z,1009.6
2017-10-17T09:43:07.033Z,1009.6
2017-10-17T09:44:08.434Z,1009.6
2017-10-17T09:45:09.834Z,1009.6
2017-10-17T09:46:11.232Z,1009.6
2017-10-17T09:47:12.630Z,1009.6
2017-10-17T09:48:14.030Z,1009.6
2017-10-17T09:49:15.430Z,1009.5
2017-10-17T09:50:16.824Z,1009.5
2017-10-17T09:51:18.226Z,1009.5
2017-10-17T09:52:19.626Z,1009.5
2017-10-17T09:53:21.023Z,1009.5
2017-10-17T09:54:22.422Z,1009.5
2017-10-17T09:55:23.820Z,1009.5
2017-10-17T09:56:25.220Z,1009.5
2017-10-17T09:57:26.620Z,1009.4
2017-10-17T09:58:28.020Z,1009.4
2017-10-17T09:59:29.420Z,1009.4
2017-10-17T10:00:30.822Z,1009.4
2017-10-17T10:01:32.217Z,1009.4
2017-10-17T10:02:33.618Z,1009.3
2017-10-17T10:03:35.017Z,1009.3
2017-10-17T10:04:36.415Z,1009.3
2017-10-17T10:05:37.817Z,1009.3
2017-10-17T10:06:39.217Z,1009.3
2017-10-17T10:07:40.618Z,1009.3
2017-10-17T10:08:42.019Z,1009.4
2017-10-17T10:09:43.416Z,1009.4
2017-10-17T10:10:44.816Z,1009.4
2017-10-17T10:11:46.215Z,1009.4
2017-10-17T10:12:47.615Z,1009.4
2017-10-17T10:13:49.017Z,1009.4
2017-10-17T10:14:50.414Z,1009.4
2017-10-17T10:15:51.815Z,1009.4
2017-10-17T10:16:53.213Z,1009.3
2017-10-17T10:17:54.613Z,1009.3
2017-10-17T10:18:56.014Z,1009.3
2017-10-17T10:19:57.414Z,1009.3
2017-10-17T10:20:58.814Z,1009.4
2017-10-17T10:22:00.211Z,1009.3
2017-10-17T10:23:01.613Z,1009.4
2017-10-17T10:24:03.020Z,1009.3
2017-10-17T10:25:04.417Z,1009.3
2017-10-17T10:26:05.821Z,1009.3
2017-10-17T10:27:07.223Z,1009.4
2017-10-17T10:28:08.625Z,1009.3
2017-10-17T10:29:10.020Z,1009.3
2017-10-17T10:30:11.419Z,1009.3
2017-10-17T10:31:12.818Z,1009.2
2017-10-17T10:32:14.218Z,1009.3
2017-10-17T10:33:15.617Z,1009.2
2017-10-17T10:34:17.019Z,1009.2
2017-10-17T10:35:18.427Z,1009.2
2017-10-17T10:36:19.827Z,1009.2
2017-10-17T10:37:21.225Z,1009.2
2017-10-17T10:38:22.628Z,1009.2
2017-10-17T10:39:24.026Z,1009.3
2017-10-17T10:40:25.429Z,1009.2
2017-10-17T10:41:26.835Z,1009.2
2017-10-17T10:42:28.236Z,1009.2
2017-10-17T10:43:29.635Z,1009.2
2017-10-17T10:44:31.036Z,1009.2
2017-10-17T10:45:32.431Z,1009.2
2017-10-17T10:46:33.836Z,1009.2
2017-10-17T10:47:35.235Z,1009.1
2017-10-17T10:48:36.638Z,1009.2
2017-10-17T10:49:38.039Z,1009.2
2017-10-17T10:50:39.442Z,1009.2
2017-10-17T10:51:40.841Z,1009.2
2017-10-17T10:52:42.240Z,1009.1
2017-10-17T10:53:43.641Z,1009.2
2017-10-17T10:54:45.039Z,1009.2
2017-10-17T10:55:46.445Z,1009.1
2017-10-17T10:56:47.844Z,1009.1
2017-10-17T10:57:49.244Z,1009.1
2017-10-17T10:58:50.643Z,1009.1
2017-10-17T10:59:52.044Z,1009.1
2017-10-17T11:00:53.447Z,1009.1
2017-10-17T11:01:54.847Z,1009.2
2017-10-17T11:02:56.245Z,1009.2
2017-10-17T11:03:57.649Z,1009.1
2017-10-17T11:04:59.050Z,1009.1
2017-10-17T11:06:00.447Z,1009.1
2017-10-17T11:07:01.847Z,1009.1
2017-10-17T11:08:03.249Z,1009.1
2017-10-17T11:09:04.650Z,1009.0
2017-10-17T11:10:06.049Z,1009.1
2017-10-17T11:11:07.456Z,1009.0
2017-10-17T11:12:08.854Z,1009.1
2017-10-17T11:13:10.254Z,1009.0
2017-10-17T11:14:11.655Z,1009.0
2017-10-17T11:15:13.055Z,1009.0
2017-10-17T11:16:14.459Z,1009.0
2017-10-17T11:17:15.865Z,1009.0
2017-10-17T11:18:17.268Z,1008.9
2017-10-17T11:19:18.663Z,1008.9
2017-10-17T11:20:20.069Z,1008.9
2017-10-17T11:21:21.468Z,1008.9
2017-10-17T11:22:22.868Z,1008.9
2017-10-17T11:23:24.268Z,1008.9
2017-10-17T11:24:25.673Z,1008.8
2017-10-17T11:25:27.074Z,1008.8
2017-10-17T11:26:28.471Z,1008.8
2017-10-17T11:27:29.870Z,1008.9
2017-10-17T11:28:31.270Z,1008.8
2017-10-17T11:29:32.673Z,1008.8
2017-10-17T11:30:34.073Z,1008.8
2017-10-17T11:31:35.472Z,1008.7
2017-10-17T11:32:36.875Z,1008.7
2017-10-17T11:33:38.273Z,1008.7
2017-10-17T11:34:39.672Z,1008.7
2017-10-17T11:35:41.108Z,1008.6
2017-10-17T11:36:42.509Z,1008.6
2017-10-17T11:37:43.909Z,1008.6
2017-10-17T11:38:45.313Z,1008.6
2017-10-17T11:39:46.714Z,1008.6
2017-10-17T11:40:48.112Z,1008.6
2017-10-17T11:41:49.510Z,1008.6
2017-10-17T11:42:50.914Z,1008.5
2017-10-17T11:43:52.314Z,1008.5
2017-10-17T11:44:53.716Z,1008.5
2017-10-17T11:45:55.118Z,1008.5
2017-10-17T11:46:56.522Z,1008.5
2017-10-17T11:47:57.930Z,1008.5
2017-10-17T11:48:59.320Z,1008.5
2017-10-17T11:50:00.721Z,1008.5
2017-10-17T11:51:02.123Z,1008.5
2017-10-17T11:52:03.523Z,1008.5
2017-10-17T11:53:04.924Z,1008.5
2017-10-17T11:54:06.329Z,1008.4
2017-10-17T11:55:07.728Z,1008.4
2017-10-17T11:56:09.126Z,1008.4
2017-10-17T11:57:10.525Z,1008.4
2017-10-17T11:58:11.930Z,1008.4
2017-10-17T11:59:13.327Z,1008.3
2017-10-17T12:00:14.729Z,1008.3
2017-10-17T12:01:16.128Z,1008.3
2017-10-17T12:02:17.526Z,1008.3
2017-10-17T12:03:18.927Z,1008.2
2017-10-17T12:04:20.327Z,1008.3
2017-10-17T12:05:21.728Z,1008.3
2017-10-17T12:06:23.129Z,1008.3
2017-10-17T12:07:24.528Z,1008.3
2017-10-17T12:08:25.944Z,1008.3
2017-10-17T12:09:27.330Z,1008.2
2017-10-17T12:10:28.729Z,1008.3
2017-10-17T12:11:30.128Z,1008.2
2017-10-17T12:12:31.530Z,1008.2
2017-10-17T12:13:32.931Z,1008.3
2017-10-17T12:14:34.335Z,1008.2
2017-10-17T12:15:35.729Z,1008.2
2017-10-17T12:16:37.130Z,1008.2
2017-10-17T12:17:38.531Z,1008.2
2017-10-17T12:18:39.930Z,1008.2
2017-10-17T12:19:41.329Z,1008.2
2017-10-17T12:20:42.729Z,1008.2
2017-10-17T12:21:44.131Z,1008.2
2017-10-17T12:22:45.532Z,1008.1
2017-10-17T12:23:46.937Z,1008.1
2017-10-17T12:24:48.332Z,1008.1
2017-10-17T12:25:49.729Z,1008.1
2017-10-17T12:26:51.128Z,1008.1
2017-10-17T12:27:52.528Z,1008.1
2017-10-17T12:28:53.930Z,1008.1
2017-10-17T12:29:55.330Z,1008.1
2017-10-17T12:30:56.732Z,1008.0
2017-10-17T12:31:58.129Z,1008.0
2017-10-17T12:32:59.526Z,1008.0
2017-10-17T12:34:00.925Z,1008.0
2017-10-17T12:35:02.330Z,1008.0
2017-10-17T12:36:03.729Z,1008.0
2017-10-17T12:37:05.129Z,1008.0
2017-10-17T12:38:06.552Z,1008.0
2017-10-17T12:39:07.956Z,1008.0
2017-10-17T12:40:09.354Z,1008.0
2017-10-17T12:41:10.760Z,1007.9
2017-10-17T12:42:12.155Z,1008.0
2017-10-17T12:43:13.559Z,1007.9
2017-10-17T12:44:14.959Z,1007.9
2017-10-17T12:45:16.365Z,1007.9
2017-10-17T12:46:17.759Z,1007.9